Time;durP1;ratioP1;P1;durP2;ratioP2;P2;SDS_P1;SDS_P2;PMS_P1;PMS_P2;Temp;Humidity;BMP_temperature;BMP_pressure;BME280_temperature;BME280_humidity;BME280_pressure;Samples;Min_cycle;Max_cycle;Signal;HPM_P1;HPM_P2
2022/06/19 00:01:27;;;;;;;4.57;3.93;;;;;;;21.02;66.06;95098.75;5091412;28;20182;-83
2022/06/19 00:03:56;;;;;;;5.03;3.75;;;;;;;21.00;66.05;95098.97;5079971;28;20232;-86
2022/06/19 00:06:24;;;;;;;4.40;4.00;;;;;;;20.98;66.20;95092.34;5092868;28;20201;-83
2022/06/19 00:08:51;;;;;;;4.30;3.80;;;;;;;20.96;66.26;95099.53;5092696;28;20189;-83
2022/06/19 00:11:22;;;;;;;4.35;3.67;;;;;;;20.93;66.26;95095.50;5093058;28;20209;-84
2022/06/19 00:13:49;;;;;;;4.00;3.67;;;;;;;20.93;66.32;95107.72;5092722;28;20186;-80
2022/06/19 00:16:17;;;;;;;5.13;3.97;;;;;;;20.91;66.44;95101.91;5093080;28;20297;-82
2022/06/19 00:18:44;;;;;;;5.78;4.00;;;;;;;20.63;66.32;95063.75;5092456;28;20229;-80
2022/06/19 00:21:12;;;;;;;3.90;3.60;;;;;;;20.87;66.27;95101.50;5092802;28;20189;-83
2022/06/19 00:23:39;;;;;;;3.77;3.47;;;;;;;20.86;66.50;95101.69;5084798;28;20236;-83
2022/06/19 00:26:06;;;;;;;4.82;3.88;;;;;;;20.84;66.54;95112.25;5072459;28;20626;-82
2022/06/19 00:28:34;;;;;;;4.47;3.70;;;;;;;20.83;66.38;95107.28;5071971;28;20190;-82
2022/06/19 00:31:01;;;;;;;4.53;3.90;;;;;;;20.78;66.49;95102.63;5072295;28;20198;-84
2022/06/19 00:33:28;;;;;;;4.00;3.70;;;;;;;20.78;66.70;95100.84;5073003;28;20209;-85
2022/06/19 00:35:55;;;;;;;4.23;3.83;;;;;;;20.76;66.80;95102.00;5072349;28;20189;-84
2022/06/19 00:38:22;;;;;;;5.27;3.67;;;;;;;20.75;66.69;95103.00;5072033;28;20299;-79
2022/06/19 00:40:49;;;;;;;6.17;3.87;;;;;;;20.73;66.75;95100.63;5072268;28;20189;-80
2022/06/19 00:43:16;;;;;;;5.27;3.87;;;;;;;20.70;66.87;95100.19;5077852;28;20221;-80
2022/06/19 00:45:49;;;;;;;4.03;3.63;;;;;;;20.65;66.93;95098.16;5092590;28;20250;-82
2022/06/19 00:48:19;;;;;;;4.43;3.33;;;;;;;20.68;66.91;95107.34;5091655;28;20288;-79
2022/06/19 00:50:48;;;;;;;3.70;3.37;;;;;;;20.61;66.94;95096.94;5092641;28;20524;-83
2022/06/19 00:53:17;;;;;;;3.92;3.58;;;;;;;20.62;67.13;95098.53;5091970;28;20190;-79
2022/06/19 00:55:47;;;;;;;4.80;3.80;;;;;;;20.63;67.20;95107.94;5091859;28;20190;-80
2022/06/19 00:58:19;;;;;;;5.63;3.83;;;;;;;20.53;67.29;95089.28;5085506;28;20183;-80
2022/06/19 01:00:55;;;;;;;3.57;3.27;;;;;;;20.60;67.32;95099.72;5071554;28;20198;-82
2022/06/19 01:03:26;;;;;;;4.87;4.20;;;;;;;20.46;67.42;95076.19;5090700;28;20270;-80
2022/06/19 01:05:54;;;;;;;3.80;3.50;;;;;;;20.54;67.41;95096.06;5091783;28;20679;-79
2022/06/19 01:08:21;;;;;;;5.97;3.73;;;;;;;20.52;67.39;95096.28;5091567;28;20193;-80
2022/06/19 01:10:52;;;;;;;5.60;3.47;;;;;;;20.43;67.38;95084.38;5091968;28;20186;-80
2022/06/19 01:13:21;;;;;;;4.10;3.73;;;;;;;20.49;67.35;95093.25;5091473;28;20653;-83
2022/06/19 01:15:50;;;;;;;4.10;3.60;;;;;;;20.46;67.55;95096.97;5091421;28;20193;-79
2022/06/19 01:18:18;;;;;;;4.23;3.50;;;;;;;20.47;67.49;95103.00;5071202;28;20731;-81
2022/06/19 01:20:45;;;;;;;4.60;3.57;;;;;;;20.31;67.42;95078.09;5071263;28;20730;-80
2022/06/19 01:23:21;;;;;;;4.13;3.80;;;;;;;20.43;67.62;95089.59;5090611;28;20225;-81
2022/06/19 01:25:51;;;;;;;3.37;3.17;;;;;;;20.41;67.65;95095.94;5091281;28;20568;-81
2022/06/19 01:31:09;;;;;;;4.07;3.30;;;;;;;20.35;67.72;95089.72;5086323;28;20199;-83
2022/06/19 01:33:40;;;;;;;6.20;3.63;;;;;;;20.36;67.75;95093.91;5071337;28;20190;-81
2022/06/19 01:36:10;;;;;;;3.97;3.67;;;;;;;20.35;68.08;95086.31;5071083;28;20201;-84
2022/06/19 01:38:37;;;;;;;3.87;3.40;;;;;;;20.33;68.02;95089.09;5071338;28;20194;-83
2022/06/19 01:41:11;;;;;;;4.90;3.47;;;;;;;20.24;68.00;95080.63;5070969;28;20190;-82
2022/06/19 01:43:38;;;;;;;4.00;3.63;;;;;;;20.25;67.96;95082.25;5071233;28;20228;-85
2022/06/19 01:46:06;;;;;;;4.10;3.70;;;;;;;20.27;68.02;95093.25;5071691;28;20187;-82
2022/06/19 01:48:34;;;;;;;6.20;3.63;;;;;;;20.18;67.90;95083.97;5071386;28;20193;-83
2022/06/19 01:51:04;;;;;;;7.13;4.10;;;;;;;20.24;67.81;95096.22;5071145;28;20199;-80
2022/06/19 01:53:37;;;;;;;4.37;3.80;;;;;;;20.24;68.09;95105.78;5071201;28;20194;-84
2022/06/19 01:56:07;;;;;;;4.77;3.13;;;;;;;20.17;68.14;95091.97;5070716;28;20193;-84
2022/06/19 01:58:36;;;;;;;6.97;3.77;;;;;;;20.19;68.28;95095.97;5081908;28;20340;-83
2022/06/19 02:01:06;;;;;;;3.67;3.37;;;;;;;20.17;68.46;95097.16;5085020;28;20194;-85
2022/06/19 02:03:38;;;;;;;3.57;3.27;;;;;;;19.97;68.40;95074.41;5070599;28;20226;-80
2022/06/19 02:06:05;;;;;;;4.30;3.60;;;;;;;20.13;68.55;95098.53;5070783;28;20186;-82
2022/06/19 02:08:35;;;;;;;3.73;3.43;;;;;;;20.08;68.52;95093.06;5070658;28;20714;-84
2022/06/19 02:11:02;;;;;;;4.80;3.30;;;;;;;19.92;68.45;95063.78;5070418;28;20247;-79
2022/06/19 02:13:32;;;;;;;5.80;3.90;;;;;;;19.96;68.58;95085.00;5070641;28;20669;-80
2022/06/19 02:15:59;;;;;;;3.83;3.53;;;;;;;20.07;68.57;95105.25;5070451;28;20214;-78
2022/06/19 02:18:32;;;;;;;5.07;3.43;;;;;;;19.99;68.56;95093.22;5070408;28;20250;-80
2022/06/19 02:20:59;;;;;;;9.03;3.47;;;;;;;20.03;68.41;95104.84;5070399;28;20186;-84
2022/06/19 02:23:31;;;;;;;3.80;3.40;;;;;;;20.00;68.38;95101.81;5071592;28;20224;-80
2022/06/19 02:25:59;;;;;;;8.07;3.60;;;;;;;20.00;68.32;95107.00;5070262;28;20194;-82
2022/06/19 02:28:26;;;;;;;5.03;3.70;;;;;;;19.98;68.48;95111.56;5070557;28;20224;-79
2022/06/19 02:30:55;;;;;;;5.07;3.57;;;;;;;19.98;68.33;95116.75;5070671;28;20183;-85
2022/06/19 02:33:25;;;;;;;3.53;3.23;;;;;;;19.95;68.38;95115.34;5070510;28;20214;-80
2022/06/19 02:35:52;;;;;;;3.47;3.17;;;;;;;19.94;68.34;95115.50;5070627;28;20190;-84
2022/06/19 02:38:22;;;;;;;5.87;3.10;;;;;;;19.92;68.48;95112.31;5070680;28;20210;-78
2022/06/19 02:40:59;;;;;;;4.17;3.30;;;;;;;19.90;68.34;95120.25;5070237;28;20189;-86
2022/06/19 02:43:29;;;;;;;3.50;3.20;;;;;;;19.87;68.44;95112.06;5070312;28;20216;-84
2022/06/19 02:45:58;;;;;;;3.97;3.60;;;;;;;19.87;68.44;95109.47;5070320;28;20194;-86
2022/06/19 02:48:27;;;;;;;4.63;3.50;;;;;;;19.87;68.51;95119.84;5070660;28;20200;-81
2022/06/19 02:50:55;;;;;;;6.40;3.60;;;;;;;19.86;68.63;95119.06;5070531;28;20190;-80
2022/06/19 02:53:22;;;;;;;5.80;3.60;;;;;;;19.84;68.58;95115.03;5075596;28;20193;-86
2022/06/19 02:55:50;;;;;;;4.23;3.83;;;;;;;19.81;68.79;95121.38;5075053;28;20209;-81
2022/06/19 02:58:19;;;;;;;3.70;3.40;;;;;;;19.83;68.76;95127.19;5080314;28;20202;-81
2022/06/19 03:00:46;;;;;;;5.00;3.60;;;;;;;19.83;68.75;95127.19;5077523;28;20191;-83
2022/06/19 03:03:22;;;;;;;4.07;3.67;;;;;;;19.77;68.84;95120.97;5073536;28;20193;-84
2022/06/19 03:05:49;;;;;;;3.83;3.50;;;;;;;19.83;68.74;95134.19;5082510;28;20190;-83
2022/06/19 03:08:16;;;;;;;5.57;3.77;;;;;;;19.81;68.86;95126.56;5091009;28;20198;-83
2022/06/19 03:10:43;;;;;;;3.40;3.10;;;;;;;19.83;68.87;95134.19;5091333;28;20181;-83
2022/06/19 03:13:10;;;;;;;4.20;3.90;;;;;;;19.83;68.82;95137.59;5074996;28;20198;-81
2022/06/19 03:15:37;;;;;;;3.50;3.20;;;;;;;19.84;68.84;95143.56;5073606;28;20193;-83
2022/06/19 03:18:04;;;;;;;3.80;3.50;;;;;;;19.85;68.78;95140.78;5073278;28;20226;-84
2022/06/19 03:20:33;;;;;;;3.77;3.40;;;;;;;19.87;68.84;95132.84;5073631;28;20194;-85
2022/06/19 03:23:00;;;;;;;5.47;4.30;;;;;;;19.71;68.95;95111.28;5073357;28;20190;-81
2022/06/19 03:25:27;;;;;;;8.67;3.67;;;;;;;19.89;68.88;95136.84;5074735;28;20214;-80
2022/06/19 03:27:54;;;;;;;3.70;3.40;;;;;;;19.90;68.90;95138.44;5073194;28;20685;-81
2022/06/19 03:30:22;;;;;;;3.70;3.40;;;;;;;19.89;69.04;95133.44;5075297;28;20194;-85
2022/06/19 03:32:50;;;;;;;7.90;3.93;;;;;;;19.86;69.00;95126.84;5093585;28;20189;-83
2022/06/19 03:35:17;;;;;;;3.93;3.60;;;;;;;19.96;68.99;95135.13;5093823;28;20186;-81
2022/06/19 03:37:46;;;;;;;8.80;3.80;;;;;;;19.98;69.11;95130.53;5093337;28;20198;-85
2022/06/19 03:40:14;;;;;;;6.73;3.70;;;;;;;20.01;68.81;95131.97;5085255;28;20217;-81
2022/06/19 03:42:41;;;;;;;5.33;3.73;;;;;;;20.04;68.96;95126.41;5073567;28;20554;-84
2022/06/19 03:45:08;;;;;;;6.73;3.70;;;;;;;20.03;69.06;95117.00;5082647;28;20202;-83
2022/06/19 03:47:36;;;;;;;4.17;3.77;;;;;;;19.87;69.00;95092.09;5093524;28;20219;-80
2022/06/19 03:50:03;;;;;;;6.60;4.30;;;;;;;20.09;68.88;95118.06;5093884;28;20204;-81
2022/06/19 03:52:30;;;;;;;4.20;3.80;;;;;;;20.17;68.71;95118.75;5093476;28;20197;-84
2022/06/19 03:54:59;;;;;;;3.93;3.43;;;;;;;20.24;68.69;95124.78;5093628;28;20194;-82
2022/06/19 03:57:26;;;;;;;4.47;4.00;;;;;;;20.29;68.40;95125.03;5094243;28;20200;-85
2022/06/19 03:59:53;;;;;;;4.07;3.77;;;;;;;20.34;68.35;95127.09;5094365;28;20216;-85
2022/06/19 04:02:20;;;;;;;4.33;3.93;;;;;;;20.35;68.04;95118.28;5094277;28;20197;-86
2022/06/19 04:04:47;;;;;;;5.40;4.50;;;;;;;20.05;68.21;95065.69;5085176;28;20860;-83
2022/06/19 04:07:15;;;;;;;4.87;4.47;;;;;;;20.49;68.06;95137.41;5073289;28;20197;-88
2022/06/19 04:09:42;;;;;;;5.13;4.50;;;;;;;20.54;67.81;95138.44;5074301;28;20197;-85
2022/06/19 04:12:12;;;;;;;5.80;5.30;;;;;;;20.52;67.81;95135.25;5074830;28;20194;-84
2022/06/19 04:14:39;;;;;;;7.67;5.50;;;;;;;20.56;67.61;95127.88;5074247;28;20285;-80
2022/06/19 04:17:07;;;;;;;6.77;6.13;;;;;;;20.63;67.47;95138.31;5074131;28;20190;-85
2022/06/19 04:19:34;;;;;;;6.23;5.63;;;;;;;20.71;67.23;95136.38;5073978;28;20222;-85
2022/06/19 04:22:01;;;;;;;5.47;4.97;;;;;;;20.77;67.19;95129.63;5085938;28;20194;-79
2022/06/19 04:24:28;;;;;;;5.83;5.27;;;;;;;20.83;67.25;95141.88;5094895;28;20221;-81
2022/06/19 04:26:55;;;;;;;5.93;5.33;;;;;;;20.88;67.08;95134.28;5107454;28;20186;-86
2022/06/19 04:29:24;;;;;;;6.97;5.53;;;;;;;20.92;67.08;95137.31;5102436;28;20665;-81
2022/06/19 04:31:50;;;;;;;6.93;5.03;;;;;;;20.96;66.96;95138.53;5103403;28;20772;-82
2022/06/19 04:34:17;;;;;;;5.63;5.10;;;;;;;21.00;66.68;95143.19;5107600;28;20186;-81
2022/06/19 04:36:44;;;;;;;6.47;5.10;;;;;;;21.07;66.42;95145.81;5108157;28;20588;-80
2022/06/19 04:39:11;;;;;;;5.03;4.47;;;;;;;21.12;66.29;95146.03;5107718;28;20692;-81
2022/06/19 04:41:43;;;;;;;8.23;4.55;;;;;;;20.98;66.08;95111.38;5108112;28;20189;-81
2022/06/19 04:44:13;;;;;;;4.63;4.22;;;;;;;21.16;66.11;95130.88;5101250;28;20592;-85
2022/06/19 04:46:42;;;;;;;8.48;5.00;;;;;;;21.27;65.80;95144.13;5088313;28;20228;-82
2022/06/19 04:49:09;;;;;;;5.43;4.50;;;;;;;21.33;65.67;95141.75;5076688;28;20202;-80
2022/06/19 04:51:36;;;;;;;6.18;5.15;;;;;;;21.22;65.29;95115.28;5073828;28;20190;-85
2022/06/19 04:54:03;;;;;;;4.93;4.40;;;;;;;;;;5073597;28;20209;-80
2022/06/19 04:56:30;;;;;;;4.95;4.50;;;;;;;21.33;64.86;95121.78;5074367;28;20285;-82
2022/06/19 04:58:57;;;;;;;4.10;3.80;;;;;;;21.54;64.81;95145.09;5072695;28;20606;-79
2022/06/19 05:01:25;;;;;;;7.82;4.50;;;;;;;21.57;64.85;95146.47;5073333;28;20187;-84
2022/06/19 05:03:57;;;;;;;4.97;4.53;;;;;;;21.60;64.64;95143.50;5078929;28;20661;-84
2022/06/19 05:06:25;;;;;;;5.20;4.75;;;;;;;21.68;64.65;95147.75;5092569;28;20212;-84
2022/06/19 05:08:52;;;;;;;5.00;4.60;;;;;;;21.73;64.50;95151.34;5092306;28;20578;-86
2022/06/19 05:11:20;;;;;;;5.00;3.88;;;;;;;21.84;64.01;95149.16;5092316;28;20190;-79
2022/06/19 05:13:48;;;;;;;4.82;4.40;;;;;;;22.15;66.60;95159.09;5095773;28;20193;-85
2022/06/19 05:16:17;;;;;;;4.20;3.72;;;;;;;22.57;69.70;95157.94;5095490;28;20193;-84
2022/06/19 05:18:45;;;;;;;4.55;3.45;;;;;;;23.06;70.89;95145.47;5093996;28;20637;-84
2022/06/19 05:21:13;;;;;;;3.90;3.60;;;;;;;23.71;71.08;95162.78;5092364;28;20189;-87
2022/06/19 05:23:44;;;;;;;4.00;3.60;;;;;;;24.42;70.11;95156.56;5081553;28;20312;-82
2022/06/19 05:26:17;;;;;;;4.38;3.55;;;;;;;25.23;68.50;95160.13;5073302;28;20204;-78
2022/06/19 05:28:45;;;;;;;4.18;3.58;;;;;;;26.07;65.82;95155.13;5071707;28;20190;-84
2022/06/19 05:31:13;;;;;;;3.00;2.80;;;;;;;26.89;62.47;95163.97;5078313;28;20228;-88
2022/06/19 05:33:39;;;;;;;4.10;3.15;;;;;;;27.74;59.97;95162.69;5089352;28;20182;-87
2022/06/19 05:36:07;;;;;;;3.05;2.83;;;;;;;28.58;57.89;95169.97;5091544;28;20310;-77
2022/06/19 05:38:35;;;;;;;3.95;2.58;;;;;;;29.44;55.76;95170.47;5092889;28;20196;-82
2022/06/19 05:41:02;;;;;;;3.03;2.55;;;;;;;30.23;53.34;95164.84;5093325;28;20182;-84
2022/06/19 05:43:31;;;;;;;3.20;2.33;;;;;;;31.05;51.43;95165.53;5091744;28;20232;-82
2022/06/19 05:46:01;;;;;;;6.82;2.72;;;;;;;31.88;49.00;95163.09;5089685;28;20202;-88
2022/06/19 05:48:29;;;;;;;3.20;2.60;;;;;;;32.59;47.70;95157.13;5091383;28;20197;-86
2022/06/19 05:51:04;;;;;;;2.67;2.47;;;;;;;33.45;45.73;95169.53;5087611;28;20193;-89
2022/06/19 05:53:35;;;;;;;2.70;2.40;;;;;;;34.18;44.14;95174.28;5071924;28;20197;-86
2022/06/19 05:56:04;;;;;;;7.20;2.65;;;;;;;34.88;42.63;95176.72;5071519;28;20190;-87
2022/06/19 05:58:31;;;;;;;3.00;2.22;;;;;;;35.31;41.25;95151.06;5081325;28;20192;-77
2022/06/19 06:00:58;;;;;;;3.08;2.40;;;;;;;36.14;39.69;95186.31;5090582;28;20193;-84
2022/06/19 06:03:26;;;;;;;2.78;2.58;;;;;;;36.70;38.25;95176.75;5090322;28;20192;-85
2022/06/19 06:05:53;;;;;;;2.67;2.47;;;;;;;37.24;37.32;95178.00;5077394;28;20608;-86
2022/06/19 06:08:20;;;;;;;3.90;2.55;;;;;;;37.69;36.05;95171.00;5072617;28;20217;-81
2022/06/19 06:10:49;;;;;;;5.45;2.88;;;;;;;38.05;36.25;95168.44;5082721;28;20188;-78
2022/06/19 06:13:18;;;;;;;10.60;3.80;;;;;;;37.96;36.22;95177.47;5084306;28;20197;-76
2022/06/19 06:15:45;;;;;;;6.53;3.25;;;;;;;37.73;36.02;95180.00;5090336;28;20193;-80
2022/06/19 06:18:13;;;;;;;3.88;2.85;;;;;;;37.41;35.91;95167.56;5090084;28;20229;-78
2022/06/19 06:20:42;;;;;;;6.40;3.35;;;;;;;37.23;36.02;95174.53;5090564;28;20181;-78
2022/06/19 06:23:10;;;;;;;6.05;2.90;;;;;;;37.01;36.29;95179.75;5072086;28;20201;-81
2022/06/19 06:25:40;;;;;;;9.00;2.55;;;;;;;36.93;35.99;95181.19;5087126;28;20298;-80
2022/06/19 06:28:07;;;;;;;4.10;2.70;;;;;;;37.03;36.11;95173.00;5091015;28;20193;-86
2022/06/19 06:30:35;;;;;;;5.75;2.33;;;;;;;37.39;36.03;95180.41;5088776;28;20181;-78
2022/06/19 06:33:03;;;;;;;5.68;2.35;;;;;;;37.79;35.53;95176.16;5089585;28;20197;-76
2022/06/19 06:35:30;;;;;;;3.85;2.42;;;;;;;38.27;35.15;95181.03;5070104;28;20736;-76
2022/06/19 06:37:59;;;;;;;3.45;2.22;;;;;;;38.72;34.42;95169.59;5078864;28;20197;-75
2022/06/19 06:40:26;;;;;;;2.88;2.38;;;;;;;39.24;34.07;95167.28;5089618;28;20194;-76
2022/06/19 06:42:53;;;;;;;3.67;2.63;;;;;;;39.71;33.12;95176.44;5076788;28;20194;-76
2022/06/19 06:45:21;;;;;;;3.50;2.30;;;;;;;40.18;32.44;95170.59;5070395;28;20241;-78
2022/06/19 06:47:49;;;;;;;4.53;2.75;;;;;;;40.63;32.19;95165.69;5074041;28;20187;-76
2022/06/19 06:50:16;;;;;;;2.72;2.22;;;;;;;40.99;31.20;95153.84;5073695;28;20194;-78
2022/06/19 06:52:43;;;;;;;2.78;2.58;;;;;;;41.49;30.69;95161.25;5074233;28;20212;-80
2022/06/19 06:55:11;;;;;;;5.22;2.63;;;;;;;41.84;30.54;95154.63;5073455;28;20677;-78
2022/06/19 06:57:38;;;;;;;5.45;2.58;;;;;;;42.26;30.10;95170.00;5073973;28;20178;-75
2022/06/19 07:00:07;;;;;;;3.10;2.35;;;;;;;42.62;29.31;95168.59;5073647;28;20194;-81
2022/06/19 07:02:34;;;;;;;5.25;2.58;;;;;;;42.97;28.89;95166.41;5078013;28;20181;-81
2022/06/19 07:05:02;;;;;;;2.25;2.05;;;;;;;43.27;28.81;95157.06;5094075;28;20201;-83
2022/06/19 07:07:33;;;;;;;3.22;2.20;;;;;;;43.60;27.80;95163.47;5093125;28;20185;-84
2022/06/19 07:10:00;;;;;;;6.10;2.25;;;;;;;43.81;27.65;95151.44;5093706;28;20211;-81
2022/06/19 07:12:29;;;;;;;3.83;2.38;;;;;;;44.15;26.77;95159.41;5093674;28;20193;-80
2022/06/19 07:14:56;;;;;;;1.90;1.80;;;;;;;44.39;26.82;95158.56;5094078;28;20185;-78
2022/06/19 07:17:23;;;;;;;2.70;2.10;;;;;;;44.59;25.97;95156.78;5093194;28;20186;-78
2022/06/19 07:19:50;;;;;;;2.30;1.98;;;;;;;44.74;25.39;95145.28;5093815;28;20193;-79
2022/06/19 07:22:19;;;;;;;5.45;2.30;;;;;;;44.90;24.83;95142.59;5081211;28;20185;-84
2022/06/19 07:24:55;;;;;;;1.85;1.75;;;;;;;45.03;24.85;95144.13;5076608;28;20593;-92
2022/06/19 07:27:22;;;;;;;2.08;1.92;;;;;;;45.17;25.18;95141.00;5076584;28;20607;-85
2022/06/19 07:29:49;;;;;;;1.65;1.55;;;;;;;45.29;24.49;95138.19;5074841;28;20188;-80
2022/06/19 07:32:16;;;;;;;4.68;1.90;;;;;;;45.37;24.04;95139.94;5074638;28;20190;-84
2022/06/19 07:34:43;;;;;;;1.60;1.50;;;;;;;45.45;23.71;95135.53;5073351;28;20244;-80
2022/06/19 07:37:13;;;;;;;3.65;1.65;;;;;;;45.33;22.91;95108.56;5054802;28;20197;-84
2022/06/19 07:39:41;;;;;;;1.60;1.50;;;;;;;45.48;22.81;95122.09;5073609;28;20197;-82
2022/06/19 07:42:09;;;;;;;2.97;1.60;;;;;;;45.47;22.88;95125.94;5073299;28;20197;-81
2022/06/19 07:44:36;;;;;;;2.60;1.67;;;;;;;45.58;22.10;95136.22;5073315;28;20243;-82
2022/06/19 07:52:28;;;;;;;1.40;1.30;;;;;;;45.44;21.70;95137.44;5030078;28;20594;-82
2022/06/19 07:54:57;;;;;;;1.52;1.42;;;;;;;45.33;20.77;95139.06;5031494;28;20195;-83
2022/06/19 07:57:24;;;;;;;1.90;1.67;;;;;;;45.22;21.05;95144.22;5030224;28;20234;-85
2022/06/19 07:59:51;;;;;;;1.50;1.40;;;;;;;45.14;21.71;95133.59;5030957;28;20187;-80
2022/06/19 08:02:18;;;;;;;1.65;1.50;;;;;;;45.08;21.56;95137.69;5029444;28;20198;-86
2022/06/19 08:04:45;;;;;;;1.45;1.35;;;;;;;45.02;21.65;95140.66;5029457;28;20256;-83
2022/06/19 08:07:13;;;;;;;2.33;1.40;;;;;;;44.99;21.58;95145.91;5010704;28;20192;-75
2022/06/19 08:09:40;;;;;;;1.50;1.40;;;;;;;44.93;21.48;95147.31;5010537;28;20192;-79
2022/06/19 08:12:09;;;;;;;1.30;1.20;;;;;;;44.84;21.41;95142.09;5029144;28;20188;-77
2022/06/19 08:14:36;;;;;;;1.40;1.30;;;;;;;44.73;21.79;95135.59;5030355;28;20197;-84
2022/06/19 08:17:03;;;;;;;1.40;1.30;;;;;;;44.68;21.35;95141.25;5030377;28;20199;-80
2022/06/19 08:19:30;;;;;;;2.85;1.67;;;;;;;44.58;21.50;95137.13;5029828;28;20318;-80
2022/06/19 08:21:57;;;;;;;2.58;1.60;;;;;;;44.36;21.98;95124.97;5031083;28;20199;-81
2022/06/19 08:24:24;;;;;;;1.45;1.42;;;;;;;44.39;21.34;95135.09;5032094;28;20198;-80
2022/06/19 08:26:51;;;;;;;4.15;1.70;;;;;;;44.31;21.25;95144.09;5057641;28;20227;-79
2022/06/19 08:29:19;;;;;;;1.50;1.40;;;;;;;44.13;21.12;95132.78;5093339;28;20193;-81
2022/06/19 08:31:47;;;;;;;1.60;1.50;;;;;;;43.97;20.89;95131.91;5074321;28;20201;-78
2022/06/19 08:34:14;;;;;;;1.55;1.45;;;;;;;43.79;21.41;95134.84;5072283;28;20606;-82
2022/06/19 08:36:41;;;;;;;2.83;1.50;;;;;;;43.59;21.40;95141.13;5072819;28;20272;-81
2022/06/19 08:39:12;;;;;;;1.30;1.20;;;;;;;43.36;20.97;95134.63;5073361;28;20638;-83
2022/06/19 08:42:01;;;;;;;1.52;1.23;;;;;;;43.14;21.46;95128.53;5072849;28;20197;-80
2022/06/19 09:21:10;;;;;;;1.10;1.10;;;;;;;39.71;23.14;95112.16;5127830;23;20673;-78
2022/06/19 09:24:01;;;;;;;1.70;1.60;;;;;;;39.50;23.11;95109.25;4953046;29;20206;-79
2022/06/19 09:26:36;;;;;;;1.42;1.25;;;;;;;39.25;23.23;95088.56;4874164;29;20225;-79
2022/06/19 09:29:10;;;;;;;1.30;1.20;;;;;;;39.03;23.27;95079.47;4875059;29;20205;-79
2022/06/19 09:31:43;;;;;;;1.65;1.55;;;;;;;38.96;23.39;95102.44;4875078;29;20201;-79
2022/06/19 09:34:15;;;;;;;1.52;1.42;;;;;;;38.77;23.49;95108.78;4875473;29;21019;-74
2022/06/19 09:36:49;;;;;;;1.40;1.30;;;;;;;38.53;23.55;95090.38;4874712;29;20204;-73
2022/06/19 09:39:22;;;;;;;2.13;1.42;;;;;;;38.31;23.56;95087.69;4875464;29;20205;-73
2022/06/19 09:41:53;;;;;;;2.65;1.50;;;;;;;38.09;23.71;95091.16;4874185;29;20223;-75
2022/06/19 09:44:26;;;;;;;1.38;1.38;;;;;;;37.86;23.69;95085.75;4873859;29;20197;-74
2022/06/19 09:47:01;;;;;;;1.65;1.40;;;;;;;37.61;23.95;95081.75;4873668;29;20728;-74
2022/06/19 09:49:33;;;;;;;1.55;1.45;;;;;;;37.37;24.27;95073.94;4874411;29;20212;-74
2022/06/19 09:52:07;;;;;;;2.28;1.42;;;;;;;37.18;24.41;95073.25;4874832;29;20201;-74
2022/06/19 09:54:41;;;;;;;1.60;1.50;;;;;;;36.98;24.72;95077.09;4874359;29;20198;-73
2022/06/19 09:57:12;;;;;;;1.52;1.33;;;;;;;36.84;24.70;95073.59;4859516;29;20236;-74
2022/06/19 09:59:46;;;;;;;2.17;1.50;;;;;;;36.71;24.64;95072.50;4874367;29;20693;-74
2022/06/19 10:02:18;;;;;;;1.98;1.83;;;;;;;36.59;24.64;95077.50;4874888;29;20205;-77
2022/06/19 10:04:49;;;;;;;1.63;1.40;;;;;;;36.48;25.06;95078.75;4949231;29;20219;-74
2022/06/19 10:07:26;;;;;;;1.70;1.52;;;;;;;36.34;25.35;95079.47;4952792;29;20382;-73
2022/06/19 10:09:56;;;;;;;3.35;1.48;;;;;;;36.17;25.46;95063.22;4951839;29;20666;-76
2022/06/19 10:12:31;;;;;;;1.58;1.48;;;;;;;36.05;25.65;95063.66;4952477;28;20264;-74
2022/06/19 10:15:04;;;;;;;1.45;1.40;;;;;;;35.89;25.44;95063.09;4951905;29;20191;-78
2022/06/19 10:17:42;;;;;;;1.27;1.23;;;;;;;35.75;25.60;95056.88;4952324;29;20562;-78
2022/06/19 10:20:15;;;;;;;1.42;1.35;;;;;;;35.62;25.69;95055.75;4951849;29;20198;-77
2022/06/19 10:23:00;;;;;;;1.58;1.48;;;;;;;35.50;25.54;95050.06;4952661;29;20253;-83
